createdAt,value
2024-02-17T00:02:05.014Z,102474.88
2024-02-17T00:04:34.024Z,102485.41
2024-02-17T00:07:03.294Z,102493.25
2024-02-17T00:09:32.244Z,102489.69
2024-02-17T00:12:01.618Z,102491.41
2024-02-17T00:14:30.547Z,102496.69
2024-02-17T00:16:59.563Z,102501.06
2024-02-17T00:19:26.159Z,102505.41
2024-02-17T00:21:52.921Z,102507.09
2024-02-17T00:24:19.587Z,102511.44
2024-02-17T00:26:49.701Z,102503.53
2024-02-17T00:29:16.855Z,102509.66
2024-02-17T00:31:52.371Z,102514.03
2024-02-17T00:34:24.800Z,102510.44
2024-02-17T00:36:54.755Z,102516.53
2024-02-17T00:39:26.528Z,102521.75
2024-02-17T00:41:58.160Z,102526.09
2024-02-17T00:44:25.453Z,102534.81
2024-02-17T00:46:52.096Z,102528.63
2024-02-17T00:49:23.556Z,102532.13
2024-02-17T00:51:52.704Z,102545.25
2024-02-17T00:54:19.465Z,102537.34
2024-02-17T00:56:46.494Z,102543.47
2024-02-17T00:59:13.467Z,102536.47
2024-02-17T01:01:40.877Z,102539.13
2024-02-17T01:04:08.882Z,102543.53
2024-02-17T01:06:35.920Z,102541.75
2024-02-17T01:09:05.096Z,102549.75
2024-02-17T01:11:34.341Z,102544.47
2024-02-17T01:14:01.022Z,102543.63
2024-02-17T01:16:27.602Z,102550.69
2024-02-17T01:18:56.178Z,102553.31
2024-02-17T01:21:23.379Z,102558.59
2024-02-17T01:23:52.390Z,102554.25
2024-02-17T01:26:18.982Z,102563.97
2024-02-17T01:28:48.025Z,102559.53
2024-02-17T01:31:14.944Z,102563.09
2024-02-17T01:33:41.887Z,102576.38
2024-02-17T01:36:18.196Z,102569.31
2024-02-17T01:38:47.324Z,102578.06
2024-02-17T01:41:14.233Z,102582.50
2024-02-17T01:43:43.294Z,102586.00
2024-02-17T01:46:12.444Z,102573.72
2024-02-17T01:48:39.226Z,102579.88
2024-02-17T01:51:07.997Z,102579.94
2024-02-17T01:53:34.913Z,102580.78
2024-02-17T01:56:01.904Z,102590.50
2024-02-17T01:58:31.529Z,102591.34
2024-02-17T02:01:00.774Z,102594.00
2024-02-17T02:03:27.485Z,102597.47
2024-02-17T02:05:57.626Z,102601.81
2024-02-17T02:08:24.383Z,102598.25
2024-02-17T02:10:51.440Z,102608.75
2024-02-17T02:13:20.645Z,102605.16
2024-02-17T02:15:54.273Z,102605.16
2024-02-17T02:18:27.830Z,102597.25
2024-02-17T02:20:57.141Z,102611.22
2024-02-17T02:23:26.328Z,102610.22
2024-02-17T02:25:54.253Z,102610.19
2024-02-17T02:28:20.969Z,102612.81
2024-02-17T02:30:48.299Z,102612.81
2024-02-17T02:33:17.961Z,102621.66
2024-02-17T02:35:44.826Z,102622.56
2024-02-17T02:38:14.030Z,102629.50
2024-02-17T02:40:42.916Z,102620.66
2024-02-17T02:43:09.598Z,102625.94
2024-02-17T02:45:40.819Z,102636.50
2024-02-17T02:48:10.336Z,102636.50
2024-02-17T02:50:39.277Z,102638.28
2024-02-17T02:53:08.052Z,102642.63
2024-02-17T02:55:34.646Z,102648.75
2024-02-17T02:58:05.861Z,102650.53
2024-02-17T03:00:34.883Z,102649.53
2024-02-17T03:03:04.051Z,102653.06
2024-02-17T03:05:34.902Z,102658.34
2024-02-17T03:08:03.965Z,102662.69
2024-02-17T03:10:30.520Z,102660.91
2024-02-17T03:12:58.060Z,102669.69
2024-02-17T03:15:24.696Z,102663.56
2024-02-17T03:17:57.093Z,102672.31
2024-02-17T03:20:23.747Z,102681.09
2024-02-17T03:22:50.620Z,102682.03
2024-02-17T03:25:17.167Z,102676.75
2024-02-17T03:27:43.713Z,102678.47
2024-02-17T03:30:12.677Z,102682.03
2024-02-17T03:32:39.483Z,102688.16
2024-02-17T03:35:09.305Z,102697.78
2024-02-17T03:37:38.255Z,102689.88
2024-02-17T03:40:10.051Z,102695.16
2024-02-17T03:42:36.733Z,102699.56
2024-02-17T03:45:03.722Z,102697.00
2024-02-17T03:47:32.606Z,102697.00
2024-02-17T03:50:01.616Z,102701.34
2024-02-17T03:52:30.649Z,102700.50
2024-02-17T03:54:57.313Z,102712.78
2024-02-17T03:57:24.284Z,102715.41
2024-02-17T03:59:50.866Z,102719.84
2024-02-17T04:02:20.098Z,102719.06
2024-02-17T04:04:47.531Z,102726.97
2024-02-17T04:07:14.452Z,102726.09
2024-02-17T04:09:41.196Z,102725.22
2024-02-17T04:12:08.011Z,102734.06
2024-02-17T04:14:37.875Z,102731.44
2024-02-17T04:17:04.496Z,102735.84
2024-02-17T04:19:31.241Z,102738.56
2024-02-17T04:22:02.552Z,102742.13
2024-02-17T04:24:31.391Z,102750.06
2024-02-17T04:27:00.474Z,102748.34
2024-02-17T04:29:29.655Z,102750.09
2024-02-17T04:31:58.434Z,102753.63
2024-02-17T04:34:25.570Z,102756.28
2024-02-17T04:36:57.824Z,102758.06
2024-02-17T04:39:26.918Z,102754.50
2024-02-17T04:41:56.019Z,102769.50
2024-02-17T04:44:22.626Z,102769.47
2024-02-17T04:46:51.748Z,102780.00
2024-02-17T04:49:18.360Z,102787.94
2024-02-17T04:51:50.019Z,102786.19
2024-02-17T04:54:16.797Z,102794.97
2024-02-17T04:56:43.701Z,102797.66
2024-02-17T04:59:10.259Z,102814.34
2024-02-17T05:01:39.506Z,102808.22
2024-02-17T05:04:07.110Z,102810.88
2024-02-17T05:06:36.204Z,102817.91
2024-02-17T05:09:02.872Z,102815.28
2024-02-17T05:11:29.788Z,102825.84
2024-02-17T05:13:56.357Z,102830.25
2024-02-17T05:16:22.944Z,102834.69
2024-02-17T05:18:49.757Z,102833.81
2024-02-17T05:21:19.967Z,102834.75
2024-02-17T05:23:46.650Z,102838.25
2024-02-17T05:26:13.178Z,102840.03
2024-02-17T05:28:42.086Z,102849.72
2024-02-17T05:31:26.111Z,102855.00
2024-02-17T05:33:52.783Z,102848.81
2024-02-17T05:36:22.030Z,102860.28
2024-02-17T05:38:48.722Z,102862.00
2024-02-17T05:41:15.344Z,102853.22
2024-02-17T05:43:45.133Z,102856.75
2024-02-17T05:46:11.774Z,102869.94
2024-02-17T05:48:40.760Z,102876.13
2024-02-17T05:51:09.720Z,102879.63
2024-02-17T05:53:36.495Z,102880.50
2024-02-17T05:56:04.179Z,102892.81
2024-02-17T05:58:32.856Z,102898.09
2024-02-17T06:01:02.977Z,102891.06
2024-02-17T06:03:30.153Z,102898.09
2024-02-17T06:05:56.812Z,102908.66
2024-02-17T06:08:25.941Z,102907.78
2024-02-17T06:10:52.662Z,102908.72
2024-02-17T06:13:21.994Z,102901.72
2024-02-17T06:15:49.809Z,102908.78
2024-02-17T06:18:35.297Z,102910.56
2024-02-17T06:21:15.424Z,102916.75
2024-02-17T06:23:44.174Z,102915.03
2024-02-17T06:26:21.005Z,102924.72
2024-02-17T06:28:48.221Z,102927.41
2024-02-17T06:31:17.557Z,102930.97
2024-02-17T06:33:44.372Z,102928.41
2024-02-17T06:36:14.792Z,102931.09
2024-02-17T06:38:42.950Z,102939.06
2024-02-17T06:41:16.143Z,102947.84
2024-02-17T06:43:45.702Z,102948.69
2024-02-17T06:46:15.075Z,102948.75
2024-02-17T06:48:42.112Z,102939.19
2024-02-17T06:51:21.063Z,102965.63
2024-02-17T06:53:48.165Z,102958.59
2024-02-17T06:56:17.475Z,102960.47
2024-02-17T06:58:46.501Z,102958.75
2024-02-17T07:01:13.041Z,102965.72
2024-02-17T07:03:39.658Z,102967.56
2024-02-17T07:06:08.936Z,102969.34
2024-02-17T07:08:49.336Z,102986.91
2024-02-17T07:11:18.674Z,102990.47
2024-02-17T07:13:45.506Z,102987.75
2024-02-17T07:16:12.400Z,102998.25
2024-02-17T07:18:40.494Z,102988.56
2024-02-17T07:21:16.243Z,102988.56
2024-02-17T07:23:42.912Z,102994.69
2024-02-17T07:26:09.582Z,102998.94
2024-02-17T07:28:38.670Z,103012.06
2024-02-17T07:31:05.573Z,103012.00
2024-02-17T07:33:34.902Z,103025.97
2024-02-17T07:36:04.128Z,103025.91
2024-02-17T07:38:33.219Z,103033.78
2024-02-17T07:41:02.235Z,103032.81
2024-02-17T07:43:31.083Z,103041.59
2024-02-17T07:45:57.791Z,103044.13
2024-02-17T07:48:24.639Z,103050.22
2024-02-17T07:50:53.061Z,103050.16
2024-02-17T07:53:19.680Z,103044.81
2024-02-17T07:55:49.347Z,103050.88
2024-02-17T07:58:15.963Z,103050.75
2024-02-17T08:00:42.650Z,103056.84
2024-02-17T08:03:19.651Z,103063.78
2024-02-17T08:05:46.445Z,103061.97
2024-02-17T08:08:15.214Z,103064.47
2024-02-17T08:10:43.017Z,103061.75
2024-02-17T08:13:10.043Z,103061.63
2024-02-17T08:15:39.692Z,103072.97
2024-02-17T08:18:09.306Z,103080.78
2024-02-17T08:21:14.625Z,103091.19
2024-02-17T08:23:46.844Z,103097.22
2024-02-17T08:26:13.702Z,103104.19
2024-02-17T08:28:42.643Z,103107.63
2024-02-17T08:31:11.853Z,103102.25
2024-02-17T08:33:38.567Z,103113.59
2024-02-17T08:36:05.378Z,103112.66
2024-02-17T08:38:31.996Z,103105.50
2024-02-17T08:41:03.477Z,103102.78
2024-02-17T08:43:30.058Z,103109.72
2024-02-17T08:46:01.153Z,103121.06
2024-02-17T08:48:30.231Z,103118.28
2024-02-17T08:50:57.425Z,103125.13
2024-02-17T08:53:24.134Z,103125.81
2024-02-17T08:55:50.715Z,103123.94
2024-02-17T08:58:24.643Z,103115.88
2024-02-17T09:00:51.402Z,103124.56
2024-02-17T09:03:18.158Z,103128.84
2024-02-17T09:05:46.154Z,103122.41
2024-02-17T09:08:12.682Z,103127.34
2024-02-17T09:10:41.568Z,103134.91
2024-02-17T09:13:08.260Z,103137.44
2024-02-17T09:15:35.200Z,103141.88
2024-02-17T09:18:04.758Z,103143.69
2024-02-17T09:20:33.808Z,103148.00
2024-02-17T09:23:04.143Z,103156.63
2024-02-17T09:25:30.701Z,103148.50
2024-02-17T09:27:59.775Z,103147.31
2024-02-17T09:30:26.467Z,103155.81
2024-02-17T09:32:55.429Z,103153.00
2024-02-17T09:35:24.293Z,103155.44
2024-02-17T09:37:50.783Z,103167.75
2024-02-17T09:40:20.966Z,103170.28
2024-02-17T09:42:49.170Z,103173.59
2024-02-17T09:45:17.133Z,103174.31
2024-02-17T09:47:46.148Z,103173.28
2024-02-17T09:50:18.240Z,103170.28
2024-02-17T09:52:48.777Z,103177.88
2024-02-17T09:55:18.834Z,103183.94
2024-02-17T09:57:54.657Z,103185.75
2024-02-17T10:00:22.699Z,103185.06
2024-02-17T10:02:50.157Z,103185.00
2024-02-17T10:05:17.312Z,103175.88
2024-02-17T10:07:56.553Z,103180.75
2024-02-17T10:10:26.094Z,103184.06
2024-02-17T10:12:59.515Z,103184.81
2024-02-17T10:15:29.795Z,103185.41
2024-02-17T10:17:58.879Z,103183.28
2024-02-17T10:20:28.013Z,103184.28
2024-02-17T10:22:56.889Z,103184.81
2024-02-17T10:25:25.493Z,103187.28
2024-02-17T10:27:52.695Z,103186.81
2024-02-17T10:30:22.993Z,103188.19
2024-02-17T10:32:52.537Z,103201.16
2024-02-17T10:35:22.441Z,103201.00
2024-02-17T10:37:51.248Z,103212.41
2024-02-17T10:40:18.706Z,103209.88
2024-02-17T10:42:47.371Z,103210.81
2024-02-17T10:45:14.112Z,103217.84
2024-02-17T10:47:46.761Z,103229.56
2024-02-17T10:50:20.235Z,103221.97
2024-02-17T10:52:53.138Z,103226.28
2024-02-17T10:55:26.217Z,103227.72
2024-02-17T10:58:00.673Z,103226.66
2024-02-17T11:00:32.699Z,103228.31
2024-02-17T11:03:04.622Z,103233.94
2024-02-17T11:05:36.820Z,103241.47
2024-02-17T11:08:05.583Z,103243.84
2024-02-17T11:10:33.458Z,103249.78
2024-02-17T11:13:01.458Z,103249.72
2024-02-17T11:15:31.335Z,103252.38
2024-02-17T11:18:02.474Z,103255.09
2024-02-17T11:20:30.160Z,103254.31
2024-02-17T11:23:01.079Z,103257.94
2024-02-17T11:25:30.317Z,103266.63
2024-02-17T11:27:59.037Z,103268.16
2024-02-17T11:30:26.491Z,103269.09
2024-02-17T11:33:02.043Z,103267.22
2024-02-17T11:35:29.728Z,103279.34
2024-02-17T11:37:57.663Z,103277.63
2024-02-17T11:40:26.632Z,103285.97
2024-02-17T11:42:56.783Z,103276.06
2024-02-17T11:45:26.441Z,103284.88
2024-02-17T11:47:56.882Z,103278.78
2024-02-17T11:50:23.519Z,103285.16
2024-02-17T11:52:52.697Z,103285.22
2024-02-17T11:55:19.650Z,103277.28
2024-02-17T11:57:46.959Z,103277.84
2024-02-17T12:00:17.265Z,103286.75
2024-02-17T12:02:52.198Z,103278.34
2024-02-17T12:05:21.344Z,103283.72
2024-02-17T12:07:48.453Z,103284.16
2024-02-17T12:10:15.485Z,103284.59
2024-02-17T12:12:42.195Z,103289.78
2024-02-17T12:15:16.334Z,103278.66
2024-02-17T12:17:48.624Z,103283.84
2024-02-17T12:23:01.644Z,103291.31
2024-02-17T12:25:28.613Z,103295.13
2024-02-17T12:27:55.630Z,103294.34
2024-02-17T12:30:25.787Z,103294.47
2024-02-17T12:33:11.477Z,103293.59
2024-02-17T12:35:54.644Z,103296.09
2024-02-17T12:42:12.039Z,103285.84
2024-02-17T12:44:41.075Z,103292.31
2024-02-17T12:47:17.679Z,103286.13
2024-02-17T12:49:44.638Z,103304.72
2024-02-17T12:52:11.474Z,103291.81
2024-02-17T12:54:38.200Z,103291.38
2024-02-17T12:57:05.295Z,103290.72
2024-02-17T12:59:31.939Z,103292.56
2024-02-17T13:01:58.466Z,103289.00
2024-02-17T13:04:27.659Z,103290.75
2024-02-17T13:06:58.991Z,103290.72
2024-02-17T13:09:28.499Z,103291.69
2024-02-17T13:11:55.206Z,103293.38
2024-02-17T13:14:21.914Z,103296.06
2024-02-17T13:16:48.515Z,103296.72
2024-02-17T13:19:15.450Z,103293.22
2024-02-17T13:21:42.153Z,103285.25
2024-02-17T13:24:10.497Z,103288.56
2024-02-17T13:29:33.300Z,103292.66
2024-02-17T13:32:04.765Z,103297.00
2024-02-17T13:34:33.043Z,103299.28
2024-02-17T13:37:02.431Z,103299.19
2024-02-17T13:39:35.758Z,103292.00
2024-02-17T13:42:02.759Z,103292.88
2024-02-17T13:44:29.809Z,103292.88
2024-02-17T13:46:56.562Z,103288.06
2024-02-17T13:49:25.956Z,103291.84
2024-02-17T13:51:54.435Z,103293.34
2024-02-17T13:54:21.203Z,103298.97
2024-02-17T13:56:47.798Z,103296.59
2024-02-17T13:59:14.440Z,103297.53
2024-02-17T14:01:43.808Z,103288.94
2024-02-17T14:04:10.546Z,103299.06
2024-02-17T14:06:37.252Z,103301.84
2024-02-17T14:09:04.059Z,103301.94
2024-02-17T14:11:30.730Z,103298.53
2024-02-17T14:14:02.467Z,103299.19
2024-02-17T14:16:30.575Z,103302.63
2024-02-17T14:18:58.140Z,103300.41
2024-02-17T14:21:27.278Z,103304.69
2024-02-17T14:24:00.375Z,103301.47
2024-02-17T14:26:29.503Z,103302.34
2024-02-17T14:28:56.038Z,103311.13
2024-02-17T14:31:25.935Z,103309.44
2024-02-17T14:33:52.618Z,103311.25
2024-02-17T14:36:20.563Z,103313.03
2024-02-17T14:38:47.238Z,103310.31
2024-02-17T14:41:16.165Z,103306.88
2024-02-17T14:43:44.984Z,103315.00
2024-02-17T14:46:38.430Z,103315.13
2024-02-17T14:49:05.858Z,103309.03
2024-02-17T14:51:37.074Z,103312.63
2024-02-17T14:54:06.697Z,103317.94
2024-02-17T14:56:38.339Z,103320.50
2024-02-17T14:59:09.802Z,103312.56
2024-02-17T15:01:38.710Z,103313.63
2024-02-17T15:04:05.511Z,103305.56
2024-02-17T15:06:32.362Z,103309.91
2024-02-17T15:08:59.061Z,103308.38
2024-02-17T15:11:30.728Z,103318.28
2024-02-17T15:13:59.697Z,103316.56
2024-02-17T15:16:28.550Z,103315.81
2024-02-17T15:18:55.165Z,103321.19
2024-02-17T15:21:24.336Z,103322.41
2024-02-17T15:23:53.234Z,103326.19
2024-02-17T15:26:19.905Z,103328.91
2024-02-17T15:28:48.789Z,103321.03
2024-02-17T15:31:16.414Z,103322.94
2024-02-17T15:33:43.125Z,103336.09
2024-02-17T15:36:12.015Z,103326.25
2024-02-17T15:38:38.708Z,103314.63
2024-02-17T15:41:08.084Z,103322.66
2024-02-17T15:43:36.517Z,103330.84
2024-02-17T15:46:05.661Z,103331.06
2024-02-17T15:48:33.784Z,103325.03
2024-02-17T15:51:03.427Z,103334.00
2024-02-17T15:53:30.941Z,103336.06
2024-02-17T15:55:59.287Z,103341.56
2024-02-17T15:58:30.031Z,103341.69
2024-02-17T16:01:00.058Z,103339.88
2024-02-17T16:03:30.685Z,103344.34
2024-02-17T16:06:02.054Z,103342.63
2024-02-17T16:08:33.806Z,103339.03
2024-02-17T16:11:00.411Z,103342.53
2024-02-17T16:13:27.081Z,103338.13
2024-02-17T16:16:01.343Z,103343.47
2024-02-17T16:18:31.351Z,103335.66
2024-02-17T16:21:01.307Z,103336.88
2024-02-17T16:23:30.492Z,103338.78
2024-02-17T16:25:57.179Z,103336.31
2024-02-17T16:28:23.815Z,103336.53
2024-02-17T16:30:51.306Z,103331.50
2024-02-17T16:33:20.557Z,103335.31
2024-02-17T16:35:47.510Z,103324.25
2024-02-17T16:38:14.985Z,103330.78
2024-02-17T16:40:44.020Z,103332.13
2024-02-17T16:43:13.042Z,103328.00
2024-02-17T16:45:40.522Z,103322.06
2024-02-17T16:48:10.713Z,103328.63
2024-02-17T16:50:37.396Z,103329.84
2024-02-17T16:53:04.169Z,103320.47
2024-02-17T16:55:30.978Z,103322.44
2024-02-17T16:58:32.970Z,103321.06
2024-02-17T17:01:02.669Z,103321.38
2024-02-17T17:03:31.163Z,103317.22
2024-02-17T17:05:58.191Z,103326.25
2024-02-17T17:08:24.826Z,103322.81
2024-02-17T17:10:53.986Z,103322.81
2024-02-17T17:13:22.803Z,103322.03
2024-02-17T17:15:51.873Z,103328.16
2024-02-17T17:18:21.064Z,103336.09
2024-02-17T17:20:47.817Z,103339.53
2024-02-17T17:23:16.646Z,103337.75
2024-02-17T17:25:45.957Z,103324.53
2024-02-17T17:28:15.128Z,103330.66
2024-02-17T17:30:41.864Z,103324.44
2024-02-17T17:33:17.207Z,103323.56
2024-02-17T17:35:43.817Z,103325.34
2024-02-17T17:38:10.456Z,103328.03
2024-02-17T17:40:37.121Z,103326.31
2024-02-17T17:43:07.191Z,103326.38
2024-02-17T17:45:34.909Z,103321.09
2024-02-17T17:48:02.009Z,103313.22
2024-02-17T17:50:36.064Z,103313.25
2024-02-17T17:53:11.278Z,103315.03
2024-02-17T17:55:37.978Z,103329.19
2024-02-17T17:58:04.794Z,103330.97
2024-02-17T18:00:34.364Z,103330.13
2024-02-17T18:03:04.691Z,103331.03
2024-02-17T18:05:32.463Z,103336.34
2024-02-17T18:08:01.625Z,103333.63
2024-02-17T18:10:32.842Z,103338.97
2024-02-17T18:13:03.577Z,103339.91
2024-02-17T18:15:32.818Z,103343.41
2024-02-17T18:17:59.786Z,103337.25
2024-02-17T18:20:27.351Z,103339.94
2024-02-17T18:22:56.348Z,103333.06
2024-02-17T18:25:27.892Z,103336.66
2024-02-17T18:28:00.623Z,103338.44
2024-02-17T18:30:27.363Z,103339.31
2024-02-17T18:32:56.489Z,103334.00
2024-02-17T18:35:23.084Z,103334.00
2024-02-17T18:37:51.993Z,103339.28
2024-02-17T18:40:18.845Z,103341.06
2024-02-17T18:42:47.989Z,103342.81
2024-02-17T18:45:15.179Z,103340.25
2024-02-17T18:47:44.128Z,103343.72
2024-02-17T18:50:11.141Z,103339.31
2024-02-17T18:52:37.843Z,103342.03
2024-02-17T18:55:06.018Z,103337.72
2024-02-17T18:57:34.966Z,103340.38
2024-02-17T19:00:02.345Z,103337.72
2024-02-17T19:02:29.234Z,103339.50
2024-02-17T19:04:58.273Z,103336.00
2024-02-17T19:07:24.911Z,103340.41
2024-02-17T19:09:51.633Z,103346.63
2024-02-17T19:12:18.492Z,103342.19
2024-02-17T19:14:50.113Z,103336.91
2024-02-17T19:17:16.835Z,103331.66
2024-02-17T19:19:46.084Z,103335.19
2024-02-17T19:22:17.630Z,103332.53
2024-02-17T19:24:44.314Z,103330.75
2024-02-17T19:27:13.350Z,103338.69
2024-02-17T19:29:42.135Z,103329.03
2024-02-17T19:32:08.939Z,103328.09
2024-02-17T19:34:37.886Z,103327.25
2024-02-17T19:37:07.638Z,103322.00
2024-02-17T19:39:35.993Z,103332.53
2024-02-17T19:42:04.156Z,103330.75
2024-02-17T19:44:31.829Z,103324.59
2024-02-17T19:46:58.462Z,103322.81
2024-02-17T19:49:25.754Z,103325.44
2024-02-17T19:51:52.598Z,103328.97
2024-02-17T19:54:19.542Z,103325.44
2024-02-17T19:56:51.321Z,103321.03
2024-02-17T19:59:18.827Z,103322.81
2024-02-17T20:01:45.908Z,103323.66
2024-02-17T20:04:19.906Z,103322.81
2024-02-17T20:06:46.568Z,103336.03
2024-02-17T20:09:13.348Z,103338.66
2024-02-17T20:11:40.037Z,103340.41
2024-02-17T20:14:10.418Z,103343.94
2024-02-17T20:16:37.363Z,103341.22
2024-02-17T20:19:04.208Z,103339.38
2024-02-17T20:21:32.614Z,103346.38
2024-02-17T20:23:59.288Z,103334.03
2024-02-17T20:26:30.964Z,103339.38
2024-02-17T20:28:59.177Z,103337.59
2024-02-17T20:31:27.603Z,103334.94
2024-02-17T20:33:58.066Z,103343.75
2024-02-17T20:36:25.450Z,103336.66
2024-02-17T20:38:54.345Z,103340.25
2024-02-17T20:41:24.092Z,103339.31
2024-02-17T20:43:53.201Z,103334.09
2024-02-17T20:46:19.949Z,103330.66
2024-02-17T20:48:46.731Z,103336.00
2024-02-17T20:51:15.678Z,103327.19
2024-02-17T20:53:46.694Z,103327.25
2024-02-17T20:56:16.014Z,103322.88
2024-02-17T20:58:42.851Z,103321.16
2024-02-17T21:01:14.526Z,103322.00
2024-02-17T21:03:41.492Z,103315.94
2024-02-17T21:06:08.271Z,103310.66
2024-02-17T21:08:35.260Z,103314.19
2024-02-17T21:11:02.001Z,103304.53
2024-02-17T21:13:31.221Z,103304.53
2024-02-17T21:15:57.965Z,103305.44
2024-02-17T21:18:26.788Z,103302.81
2024-02-17T21:20:53.824Z,103300.16
2024-02-17T21:23:20.503Z,103291.44
2024-02-17T21:25:52.565Z,103292.34
2024-02-17T21:28:19.209Z,103291.50
2024-02-17T21:30:51.494Z,103302.97
2024-02-17T21:33:21.616Z,103293.25
2024-02-17T21:35:48.600Z,103296.78
2024-02-17T21:38:17.928Z,103297.66
2024-02-17T21:40:44.852Z,103296.78
2024-02-17T21:43:11.477Z,103300.28
2024-02-17T21:45:40.846Z,103291.50
2024-02-17T21:48:10.492Z,103294.13
2024-02-17T21:50:39.631Z,103292.34
2024-02-17T21:53:06.324Z,103293.22
2024-02-17T21:55:35.472Z,103295.00
2024-02-17T21:58:02.290Z,103291.50
2024-02-17T22:00:31.637Z,103284.44
2024-02-17T22:02:58.374Z,103284.44
2024-02-17T22:05:27.477Z,103288.88
2024-02-17T22:07:54.569Z,103284.53
2024-02-17T22:10:23.461Z,103285.44
2024-02-17T22:12:50.259Z,103288.94
2024-02-17T22:15:19.241Z,103288.09
2024-02-17T22:17:45.839Z,103288.09
2024-02-17T22:20:15.859Z,103289.00
2024-02-17T22:22:42.581Z,103283.72
2024-02-17T22:25:11.132Z,103277.63
2024-02-17T22:27:37.836Z,103275.16
2024-02-17T22:30:04.998Z,103283.19
2024-02-17T22:32:32.007Z,103274.53
2024-02-17T22:35:01.168Z,103278.06
2024-02-17T22:37:27.904Z,103273.69
2024-02-17T22:39:54.648Z,103274.63
2024-02-17T22:42:23.523Z,103271.19
2024-02-17T22:44:52.665Z,103266.00
2024-02-17T22:47:22.324Z,103266.13
2024-02-17T22:49:49.515Z,103265.41
2024-02-17T22:52:21.215Z,103258.47
2024-02-17T22:54:48.256Z,103258.63
2024-02-17T22:57:14.916Z,103252.59
2024-02-17T22:59:43.472Z,103255.28
2024-02-17T23:02:10.685Z,103253.63
2024-02-17T23:04:37.493Z,103251.09
2024-02-17T23:07:04.456Z,103246.78
2024-02-17T23:09:33.677Z,103241.50
2024-02-17T23:12:00.848Z,103239.72
2024-02-17T23:14:27.487Z,103236.22
2024-02-17T23:16:56.596Z,103228.31
2024-02-17T23:19:25.932Z,103223.97
2024-02-17T23:21:54.193Z,103224.03
2024-02-17T23:24:20.959Z,103219.66
2024-02-17T23:26:47.653Z,103218.81
2024-02-17T23:29:16.568Z,103219.72
2024-02-17T23:31:43.979Z,103222.31
2024-02-17T23:34:10.779Z,103216.22
2024-02-17T23:36:39.883Z,103211.81
2024-02-17T23:39:06.710Z,103216.22
2024-02-17T23:41:34.641Z,103217.94
2024-02-17T23:44:03.852Z,103225.88
2024-02-17T23:46:30.585Z,103214.44
2024-02-17T23:48:57.470Z,103215.31
2024-02-17T23:51:26.425Z,103209.16
2024-02-17T23:53:53.204Z,103205.66
2024-02-17T23:56:19.819Z,103204.78
2024-02-17T23:58:46.503Z,103204.84
